Time;durP1;ratioP1;P1;durP2;ratioP2;P2;SDS_P1;SDS_P2;PMS_P1;PMS_P2;Temp;Humidity;BMP_temperature;BMP_pressure;BME280_temperature;BME280_humidity;BME280_pressure;Samples;Min_cycle;Max_cycle;Signal;HPM_P1;HPM_P2
2022/07/24 00:01:02;;;;;;;7.03;5.20;;;;;;;29.58;28.77;100769.97;5068709;27;2129532;-67
2022/07/24 00:03:28;;;;;;;8.90;5.00;;;;;;;29.62;28.67;100766.38;5126793;28;20776;-66
2022/07/24 00:05:53;;;;;;;6.30;4.90;;;;;;;29.65;28.35;100762.22;5127444;28;20868;-66
2022/07/24 00:08:19;;;;;;;5.97;4.83;;;;;;;29.64;28.87;100764.16;5127376;28;20371;-66
2022/07/24 00:10:44;;;;;;;6.63;4.67;;;;;;;29.66;27.98;100767.38;5127474;28;20424;-67
2022/07/24 00:13:42;;;;;;;5.95;4.80;;;;;;;29.71;27.93;100756.38;5077380;27;20930;-66
2022/07/24 00:16:08;;;;;;;7.60;4.80;;;;;;;29.75;27.95;100759.38;5060802;28;20405;-66
2022/07/24 00:18:34;;;;;;;8.47;4.90;;;;;;;29.76;28.16;100754.69;5058543;28;20900;-66
2022/07/24 00:20:59;;;;;;;8.30;4.97;;;;;;;29.78;28.11;100749.75;5052599;28;20773;-66
2022/07/24 00:23:25;;;;;;;6.67;5.13;;;;;;;29.80;27.83;100745.63;5066595;28;20441;-66
2022/07/24 00:25:52;;;;;;;8.90;5.03;;;;;;;29.80;28.20;100748.34;5064652;28;20388;-66
2022/07/24 00:28:20;;;;;;;7.57;4.90;;;;;;;29.68;28.73;100754.25;5054621;28;20391;-66
2022/07/24 00:30:46;;;;;;;7.38;4.70;;;;;;;29.70;28.57;100760.22;5052328;28;20477;-66
2022/07/24 00:33:11;;;;;;;10.15;4.85;;;;;;;29.65;28.24;100760.28;5066507;28;20485;-66
2022/07/24 00:35:37;;;;;;;7.30;4.60;;;;;;;29.69;28.36;100763.25;5066027;28;20825;-66
2022/07/24 00:38:03;;;;;;;10.40;5.27;;;;;;;29.71;28.44;100745.47;5066330;28;20470;-66
2022/07/24 00:40:29;;;;;;;9.00;5.60;;;;;;;29.72;28.47;100758.00;5066274;28;20388;-66
2022/07/24 00:42:56;;;;;;;6.00;4.60;;;;;;;29.72;28.21;100759.91;5052141;28;20786;-66
2022/07/24 00:46:20;;;;;;;7.85;5.18;;;;;;;29.71;28.35;100759.13;5087272;27;20402;-66
2022/07/24 00:48:45;;;;;;;9.15;5.13;;;;;;;29.70;28.36;100757.47;5066827;28;20407;-66
2022/07/24 00:51:11;;;;;;;7.57;4.57;;;;;;;29.67;28.51;100755.34;5066779;28;20383;-66
2022/07/24 00:56:00;;;;;;;9.00;4.85;;;;;;;29.67;28.52;100774.47;5082876;27;20408;-66
2022/07/24 00:58:26;;;;;;;6.60;4.70;;;;;;;29.64;28.53;100769.63;5066615;28;20395;-66
2022/07/24 01:00:54;;;;;;;10.63;5.30;;;;;;;29.62;28.74;100766.38;5066492;28;20433;-66
2022/07/24 01:03:19;;;;;;;5.90;5.00;;;;;;;29.58;28.76;100761.78;5066643;28;20471;-66
2022/07/24 01:05:45;;;;;;;6.97;4.77;;;;;;;29.53;28.71;100763.50;5066755;28;20467;-66
2022/07/24 01:08:11;;;;;;;8.17;4.60;;;;;;;29.56;28.92;100764.81;5067092;28;20376;-66
2022/07/24 01:10:36;;;;;;;5.63;4.50;;;;;;;29.48;28.86;100763.56;5066068;28;20375;-66
2022/07/24 01:13:02;;;;;;;6.20;4.47;;;;;;;29.49;28.91;100767.09;5066533;28;20384;-66
2022/07/24 01:15:28;;;;;;;5.20;4.60;;;;;;;29.39;28.90;100775.44;5065972;28;20416;-66
2022/07/24 01:17:53;;;;;;;8.43;4.80;;;;;;;29.41;29.37;100757.66;5066501;28;20414;-66
2022/07/24 01:20:19;;;;;;;7.00;4.80;;;;;;;29.39;29.24;100769.97;5066455;28;20384;-66
2022/07/24 01:24:37;;;;;;;6.38;4.50;;;;;;;29.39;28.98;100770.81;5089813;27;20410;-66
2022/07/24 01:27:03;;;;;;;5.63;4.67;;;;;;;29.36;29.10;100768.66;5066442;28;20396;-66
2022/07/24 01:29:28;;;;;;;8.17;4.60;;;;;;;29.36;28.89;100769.47;5066889;28;20388;-66
2022/07/24 01:33:30;;;;;;;6.93;4.78;;;;;;;29.35;29.01;100758.84;5043402;28;20415;-67
2022/07/24 01:35:56;;;;;;;6.83;4.97;;;;;;;29.35;29.06;100764.28;5023364;28;20463;-66
2022/07/24 01:40:46;;;;;;;8.63;4.57;;;;;;;29.36;28.89;100774.91;5054804;28;20410;-67
2022/07/24 01:45:20;;;;;;;6.35;4.65;;;;;;;29.38;28.61;100784.75;5084284;27;20404;-66
2022/07/24 01:47:46;;;;;;;6.87;4.27;;;;;;;29.14;28.73;100785.59;5052595;28;20409;-66
2022/07/24 01:50:13;;;;;;;7.25;4.90;;;;;;;28.66;29.99;100796.53;5066782;28;20388;-66
2022/07/24 01:52:38;;;;;;;7.07;4.85;;;;;;;28.78;29.84;100784.09;5066548;28;20392;-66
2022/07/24 01:55:05;;;;;;;5.87;4.90;;;;;;;29.05;29.60;100779.16;5066855;28;20394;-66
2022/07/24 01:57:31;;;;;;;8.07;4.88;;;;;;;29.08;29.56;100776.66;5066776;28;20387;-66
2022/07/24 02:00:00;;;;;;;6.72;5.00;;;;;;;28.79;29.48;100782.19;5061476;28;20382;-66
2022/07/24 02:02:27;;;;;;;7.70;5.63;;;;;;;28.29;30.98;100790.63;5057976;28;20770;-66
2022/07/24 02:04:53;;;;;;;10.00;5.40;;;;;;;28.44;31.29;100781.47;5065911;28;20408;-66
2022/07/24 02:07:19;;;;;;;11.70;5.60;;;;;;;28.09;32.67;100791.63;5066210;28;20392;-66
2022/07/24 02:09:45;;;;;;;12.63;6.05;;;;;;;27.94;33.45;100783.56;5066282;28;20395;-66
2022/07/24 02:12:10;;;;;;;9.02;5.95;;;;;;;28.03;33.23;100793.53;5061555;28;20525;-66
2022/07/24 02:14:35;;;;;;;11.27;5.75;;;;;;;28.34;32.92;100801.47;5056098;28;20380;-65
2022/07/24 02:17:01;;;;;;;8.70;5.53;;;;;;;28.44;32.43;100811.44;5065830;28;20381;-66
2022/07/24 02:19:55;;;;;;;9.18;5.72;;;;;;;27.92;33.42;100799.38;5094656;27;20459;-66
2022/07/24 02:22:20;;;;;;;12.10;5.90;;;;;;;28.10;33.29;100801.41;5086532;28;20394;-66
2022/07/24 02:24:46;;;;;;;11.73;6.30;;;;;;;28.13;33.38;100811.75;5087248;28;20481;-66
2022/07/24 02:27:11;;;;;;;12.80;6.30;;;;;;;27.99;33.55;100814.28;5086784;28;20765;-66
2022/07/24 02:30:16;;;;;;;13.25;6.05;;;;;;;27.72;34.35;100813.94;5082472;27;20407;-66
2022/07/24 02:32:42;;;;;;;12.25;7.07;;;;;;;27.92;34.09;100816.53;5066865;28;21014;-66
2022/07/24 02:36:08;;;;;;;10.48;6.30;;;;;;;27.96;34.25;100828.47;5100478;27;20463;-66
2022/07/24 02:38:34;;;;;;;12.93;6.40;;;;;;;27.95;34.27;100826.06;5087050;28;20398;-66
2022/07/24 02:40:59;;;;;;;14.47;6.87;;;;;;;27.96;34.35;100828.47;5086787;28;20383;-66
2022/07/24 02:44:01;;;;;;;11.20;6.80;;;;;;;28.11;34.02;100835.75;5058140;27;20459;-66
2022/07/24 02:46:26;;;;;;;9.13;7.50;;;;;;;28.14;33.88;100832.41;5046615;28;20401;-66
2022/07/24 02:48:53;;;;;;;10.53;7.33;;;;;;;28.15;34.08;100834.06;5028950;28;20463;-65
2022/07/24 02:51:19;;;;;;;13.15;7.15;;;;;;;28.18;33.94;100833.50;5046624;28;20887;-66
2022/07/24 02:53:44;;;;;;;13.15;6.90;;;;;;;28.18;33.77;100828.06;5046672;28;20389;-66
2022/07/24 02:56:10;;;;;;;11.60;8.20;;;;;;;28.20;33.74;100827.78;5046516;28;20464;-65
2022/07/24 02:58:35;;;;;;;9.90;7.40;;;;;;;28.22;33.87;100825.56;5046327;28;20389;-66
2022/07/24 03:01:01;;;;;;;10.77;8.07;;;;;;;28.28;33.74;100818.16;5046688;28;20468;-66
2022/07/24 03:03:27;;;;;;;7.90;6.50;;;;;;;28.32;33.42;100819.19;5046272;28;20472;-66
2022/07/24 03:05:52;;;;;;;11.82;6.38;;;;;;;28.32;33.36;100808.28;5046378;28;20396;-65
2022/07/24 03:08:18;;;;;;;10.40;6.33;;;;;;;28.38;32.72;100802.50;5046428;28;20436;-66
2022/07/24 03:10:43;;;;;;;15.25;8.38;;;;;;;28.42;32.41;100800.81;5046443;28;20399;-66
2022/07/24 03:13:09;;;;;;;14.30;8.77;;;;;;;28.47;32.73;100799.16;5046219;28;20424;-66
2022/07/24 03:15:34;;;;;;;14.47;8.90;;;;;;;28.54;32.15;100805.94;5045862;28;20418;-66
2022/07/24 03:18:00;;;;;;;12.20;8.90;;;;;;;28.58;31.69;100809.69;5046321;28;20393;-66
2022/07/24 03:20:28;;;;;;;13.93;8.00;;;;;;;28.62;32.41;100806.41;5045791;28;20405;-66
2022/07/24 03:22:54;;;;;;;15.82;8.10;;;;;;;28.64;32.27;100823.28;5046129;28;20421;-66
2022/07/24 03:25:20;;;;;;;11.15;8.13;;;;;;;28.73;32.31;100821.56;5046133;28;20374;-66
2022/07/24 03:27:47;;;;;;;11.13;7.80;;;;;;;28.85;31.42;100815.72;5045798;28;20946;-66
2022/07/24 03:30:14;;;;;;;10.57;7.63;;;;;;;28.88;31.54;100826.84;5046123;28;20420;-66
2022/07/24 03:32:40;;;;;;;12.07;7.68;;;;;;;28.95;31.92;100824.56;5045813;28;20392;-66
2022/07/24 03:35:06;;;;;;;12.10;7.93;;;;;;;28.98;31.94;100823.97;5046321;28;20400;-66
2022/07/24 03:39:14;;;;;;;12.43;7.55;;;;;;;29.04;32.36;100827.47;5074129;27;20414;-66
2022/07/24 03:41:40;;;;;;;10.27;6.33;;;;;;;29.08;31.07;100817.59;5065641;28;20404;-66
2022/07/24 03:44:06;;;;;;;8.57;6.13;;;;;;;29.18;30.87;100819.41;5066839;28;20948;-66
2022/07/24 03:46:31;;;;;;;9.50;6.15;;;;;;;29.27;30.70;100819.56;5066257;28;20946;-66
2022/07/24 03:48:57;;;;;;;8.60;6.20;;;;;;;29.35;30.52;100822.47;5066748;28;20412;-66
2022/07/24 03:51:23;;;;;;;8.43;5.95;;;;;;;29.39;30.58;100819.97;5066522;28;20429;-67
2022/07/24 03:53:48;;;;;;;9.15;6.05;;;;;;;29.53;30.25;100823.59;5066525;28;20465;-67
2022/07/24 03:56:15;;;;;;;10.67;5.97;;;;;;;29.64;30.25;100832.44;5066329;28;20394;-67
2022/07/24 03:58:41;;;;;;;8.10;5.90;;;;;;;29.75;29.88;100833.13;5066335;28;20921;-67
2022/07/24 04:01:07;;;;;;;14.82;5.93;;;;;;;29.90;29.72;100830.16;5066237;28;20470;-67
2022/07/24 04:03:34;;;;;;;9.40;5.82;;;;;;;30.05;29.57;100825.56;5052469;28;20384;-67
2022/07/24 04:06:03;;;;;;;10.05;5.55;;;;;;;30.16;29.40;100828.94;5066408;28;20380;-67
2022/07/24 04:08:29;;;;;;;8.52;5.47;;;;;;;30.24;29.09;100820.06;5066058;28;20450;-67
2022/07/24 04:10:57;;;;;;;14.20;6.10;;;;;;;30.42;28.87;100823.88;5058719;28;20397;-67
2022/07/24 04:13:28;;;;;;;10.07;5.60;;;;;;;30.53;28.65;100822.56;5060007;28;20431;-67
2022/07/24 04:15:55;;;;;;;8.52;5.70;;;;;;;30.70;28.63;100824.69;5064897;28;20839;-67
2022/07/24 04:18:21;;;;;;;8.97;5.80;;;;;;;30.87;28.07;100822.16;5066014;28;20408;-68
2022/07/24 04:20:47;;;;;;;12.20;5.57;;;;;;;30.98;28.13;100819.28;5065529;28;20388;-67
2022/07/24 04:23:12;;;;;;;10.90;5.27;;;;;;;31.22;27.57;100822.59;5065718;28;20380;-68
2022/07/24 04:25:38;;;;;;;8.60;5.60;;;;;;;31.39;27.28;100818.41;5051490;28;20739;-68
2022/07/24 04:28:04;;;;;;;6.70;5.33;;;;;;;31.72;26.75;100821.75;5065969;28;20438;-68
2022/07/24 04:30:30;;;;;;;8.43;5.57;;;;;;;32.13;25.88;100823.53;5065790;28;20408;-67
2022/07/24 04:32:56;;;;;;;10.07;5.47;;;;;;;32.51;25.57;100817.59;5065674;28;20372;-68
2022/07/24 04:35:21;;;;;;;8.07;5.30;;;;;;;32.89;25.17;100819.88;5065384;28;20471;-65
2022/07/24 04:37:47;;;;;;;33.07;6.93;;;;;;;33.49;24.68;100828.56;5065272;28;20424;-69
2022/07/24 04:40:14;;;;;;;10.60;5.47;;;;;;;34.17;23.49;100820.63;5065675;28;20380;-69
2022/07/24 04:42:40;;;;;;;210.43;16.17;;;;;;;34.96;22.89;100809.34;5065057;28;20388;-66
2022/07/24 04:45:08;;;;;;;9.03;5.30;;;;;;;35.66;21.95;100811.63;5065455;28;20388;-66
2022/07/24 04:47:34;;;;;;;10.35;5.22;;;;;;;36.42;21.35;100809.56;5064961;28;20404;-66
2022/07/24 04:49:59;;;;;;;8.02;5.00;;;;;;;37.38;20.46;100817.34;5055561;28;20494;-67
2022/07/24 04:52:24;;;;;;;5.73;4.90;;;;;;;38.16;19.40;100820.75;5052368;28;20728;-67
2022/07/24 04:54:50;;;;;;;6.60;5.03;;;;;;;38.92;18.64;100809.56;5037763;28;20380;-66
2022/07/24 04:57:16;;;;;;;13.38;5.40;;;;;;;39.69;17.80;100819.16;5052079;28;20411;-68
2022/07/24 04:59:42;;;;;;;7.22;4.90;;;;;;;40.55;17.32;100813.56;5051517;28;20408;-68
2022/07/24 05:02:07;;;;;;;7.50;4.85;;;;;;;41.19;16.62;100814.50;5051756;28;20380;-69
2022/07/24 05:04:34;;;;;;;6.55;5.90;;;;;;;41.81;16.23;100814.13;5051428;28;20389;-67
2022/07/24 05:07:00;;;;;;;7.78;5.97;;;;;;;41.90;15.69;100824.91;5051787;28;20380;-68
2022/07/24 05:09:26;;;;;;;8.95;5.85;;;;;;;42.33;15.50;100822.56;5051788;28;20385;-66
2022/07/24 05:11:52;;;;;;;10.70;5.97;;;;;;;43.18;15.07;100823.53;5051367;28;20480;-64
2022/07/24 05:14:17;;;;;;;6.70;5.43;;;;;;;44.03;14.39;100816.66;5051530;28;20472;-67
2022/07/24 05:16:43;;;;;;;6.10;5.00;;;;;;;44.56;14.05;100820.69;5051854;28;20373;-68
2022/07/24 05:19:08;;;;;;;7.00;5.03;;;;;;;44.82;13.59;100824.22;5051477;28;20478;-67
2022/07/24 05:21:35;;;;;;;6.67;5.20;;;;;;;45.39;12.84;100815.69;5051511;28;20389;-67
2022/07/24 05:24:02;;;;;;;8.82;6.10;;;;;;;45.94;12.47;100811.38;5051344;28;20479;-67
2022/07/24 05:26:31;;;;;;;7.70;5.90;;;;;;;46.11;12.50;100814.47;5051409;28;20381;-67
2022/07/24 05:29:00;;;;;;;6.20;5.70;;;;;;;46.54;11.99;100820.50;5051144;28;20529;-67
2022/07/24 05:31:25;;;;;;;7.10;5.67;;;;;;;46.90;11.57;100819.38;5050893;28;20415;-67
2022/07/24 05:33:51;;;;;;;9.53;7.60;;;;;;;47.33;11.52;100815.25;5051153;28;20890;-65
2022/07/24 05:36:17;;;;;;;12.25;7.32;;;;;;;47.60;11.18;100815.31;5051102;28;20381;-67
2022/07/24 05:38:43;;;;;;;8.48;7.43;;;;;;;47.82;11.01;100813.75;5051366;28;20424;-67
2022/07/24 05:41:11;;;;;;;8.50;7.10;;;;;;;48.21;10.94;100800.31;5050786;28;20823;-67
2022/07/24 05:43:36;;;;;;;8.38;6.88;;;;;;;48.56;10.36;100800.88;5051057;28;20759;-68
2022/07/24 05:46:03;;;;;;;7.97;6.70;;;;;;;48.27;10.74;100794.97;5036946;28;20391;-68
2022/07/24 05:48:28;;;;;;;9.38;6.70;;;;;;;48.64;10.83;100805.16;5050900;28;20438;-67
2022/07/24 05:50:54;;;;;;;7.40;6.70;;;;;;;48.88;10.60;100814.34;5050930;28;20411;-67
2022/07/24 05:53:20;;;;;;;9.07;7.00;;;;;;;48.90;10.36;100820.34;5051115;28;20442;-67
2022/07/24 05:55:46;;;;;;;9.32;6.97;;;;;;;49.14;10.21;100831.53;5050939;28;20454;-67
2022/07/24 05:58:11;;;;;;;8.20;6.67;;;;;;;49.51;9.96;100824.72;5050361;28;20498;-68
2022/07/24 06:00:37;;;;;;;8.38;6.80;;;;;;;49.98;10.19;100820.81;5050148;28;20870;-68
2022/07/24 06:03:02;;;;;;;8.77;7.93;;;;;;;49.86;9.65;100813.84;5050139;28;20384;-68
2022/07/24 06:05:28;;;;;;;8.60;6.80;;;;;;;50.31;9.81;100817.97;5050937;28;20381;-68
2022/07/24 06:07:53;;;;;;;8.13;6.47;;;;;;;50.81;9.24;100816.59;5050615;28;21320;-68
2022/07/24 06:10:19;;;;;;;8.93;6.70;;;;;;;50.70;9.21;100818.94;5050857;28;21075;-65
2022/07/24 06:12:44;;;;;;;9.18;7.20;;;;;;;50.96;9.02;100816.22;5050433;28;20483;-65
2022/07/24 06:15:10;;;;;;;8.43;7.60;;;;;;;51.25;9.23;100813.34;5049946;28;20400;-64
2022/07/24 06:17:36;;;;;;;9.45;8.18;;;;;;;51.41;9.12;100813.25;5036890;28;20475;-66
2022/07/24 06:20:02;;;;;;;9.47;8.50;;;;;;;51.00;9.08;100809.25;5037972;28;20387;-67
2022/07/24 06:22:28;;;;;;;11.32;8.25;;;;;;;51.50;8.79;100808.97;5048868;28;21103;-67
2022/07/24 06:24:54;;;;;;;8.10;7.22;;;;;;;51.35;8.62;100805.81;5050214;28;20938;-67
2022/07/24 06:27:20;;;;;;;8.75;6.78;;;;;;;51.48;8.43;100795.28;5050315;28;20470;-65
2022/07/24 06:29:45;;;;;;;8.82;7.15;;;;;;;51.42;8.04;100788.63;5050297;28;20908;-65
2022/07/24 06:32:11;;;;;;;8.40;6.80;;;;;;;52.01;7.92;100783.50;5035433;28;20730;-67
2022/07/24 06:34:36;;;;;;;8.47;7.63;;;;;;;52.32;7.64;100785.69;5050336;28;20438;-66
2022/07/24 06:37:02;;;;;;;8.00;7.30;;;;;;;52.37;7.67;100780.22;5037783;28;20382;-65
2022/07/24 06:39:28;;;;;;;8.93;7.77;;;;;;;52.50;7.61;100776.53;5048610;28;20426;-65
2022/07/24 06:41:53;;;;;;;11.30;9.60;;;;;;;52.63;7.39;100768.00;5050221;28;20377;-65
2022/07/24 06:44:19;;;;;;;9.03;8.13;;;;;;;52.53;7.51;100764.28;5049815;28;20381;-65
2022/07/24 06:46:44;;;;;;;9.30;8.20;;;;;;;52.58;7.48;100762.94;5049777;28;20389;-65
2022/07/24 06:49:10;;;;;;;10.33;8.43;;;;;;;52.75;7.16;100767.94;5049475;28;20381;-65
2022/07/24 06:51:35;;;;;;;10.87;8.80;;;;;;;52.87;7.56;100780.41;5049937;28;20385;-64
2022/07/24 06:54:01;;;;;;;9.90;8.97;;;;;;;53.19;7.08;100791.78;5050071;28;20809;-65
2022/07/24 06:56:26;;;;;;;16.88;8.10;;;;;;;52.70;6.70;100798.88;5049539;28;20385;-63
2022/07/24 06:58:52;;;;;;;10.17;8.40;;;;;;;52.72;7.51;100799.97;5039760;28;20413;-64
2022/07/24 07:01:17;;;;;;;10.13;8.00;;;;;;;52.44;7.67;100810.31;5045428;28;20476;-63
2022/07/24 07:03:43;;;;;;;9.43;8.05;;;;;;;52.34;7.61;100815.09;5049909;28;20392;-63
2022/07/24 07:06:08;;;;;;;10.17;7.80;;;;;;;52.26;7.73;100808.13;5049412;28;20373;-62
2022/07/24 07:08:34;;;;;;;9.47;8.50;;;;;;;51.75;7.92;100823.09;5045468;28;20421;-63
2022/07/24 07:11:00;;;;;;;12.75;7.22;;;;;;;51.28;7.19;100808.84;5049193;28;20388;-63
2022/07/24 07:13:25;;;;;;;8.07;7.27;;;;;;;50.39;8.77;100801.63;5048826;28;20381;-63
2022/07/24 07:15:51;;;;;;;9.18;7.50;;;;;;;49.54;9.54;100801.31;5039327;28;20882;-63
2022/07/24 07:18:16;;;;;;;7.57;5.87;;;;;;;48.86;9.63;100801.91;5049476;28;20444;-63
2022/07/24 07:20:42;;;;;;;11.83;6.70;;;;;;;48.43;10.30;100803.53;5049354;28;20392;-62
2022/07/24 07:23:07;;;;;;;8.15;5.40;;;;;;;47.59;10.38;100806.03;5049156;28;20421;-62
2022/07/24 07:25:32;;;;;;;7.40;5.47;;;;;;;46.39;11.60;100807.81;5048858;28;20393;-61
2022/07/24 07:27:58;;;;;;;8.15;5.40;;;;;;;45.78;11.90;100811.88;5048259;28;20388;-63
2022/07/24 07:30:23;;;;;;;9.83;5.30;;;;;;;45.26;11.91;100810.94;5049155;28;20392;-63
2022/07/24 07:32:49;;;;;;;8.13;5.23;;;;;;;44.80;11.95;100804.25;5048762;28;20380;-61
2022/07/24 07:35:14;;;;;;;8.23;4.60;;;;;;;44.41;13.01;100811.50;5037299;28;20475;-63
2022/07/24 07:37:40;;;;;;;8.43;5.30;;;;;;;43.84;13.02;100805.88;5047405;28;20431;-63
2022/07/24 07:40:06;;;;;;;7.90;5.30;;;;;;;43.63;13.13;100806.59;5040865;28;20389;-62
2022/07/24 07:42:32;;;;;;;10.73;4.97;;;;;;;43.41;13.46;100814.13;5048823;28;20470;-63
2022/07/24 07:44:57;;;;;;;8.63;5.20;;;;;;;42.99;13.79;100824.66;5041972;28;20517;-63
2022/07/24 07:47:23;;;;;;;10.10;5.15;;;;;;;42.48;13.85;100826.28;5048880;28;20434;-63
2022/07/24 07:49:48;;;;;;;9.37;5.00;;;;;;;42.18;13.99;100821.63;5042532;28;20390;-63
2022/07/24 07:52:13;;;;;;;8.67;4.97;;;;;;;42.28;14.13;100820.13;5048284;28;20435;-63
2022/07/24 07:54:39;;;;;;;8.23;4.63;;;;;;;42.08;14.57;100816.75;5044555;28;20946;-63
2022/07/24 07:57:04;;;;;;;11.73;5.00;;;;;;;41.77;14.93;100821.59;5046147;28;20381;-62
2022/07/24 07:59:30;;;;;;;8.57;5.10;;;;;;;41.59;15.00;100815.81;5047046;28;20427;-62
2022/07/24 08:01:55;;;;;;;10.40;5.00;;;;;;;41.31;15.26;100826.59;5044613;28;20446;-63
2022/07/24 08:04:21;;;;;;;10.27;5.40;;;;;;;41.30;15.17;100827.78;5048628;28;20395;-61
2022/07/24 08:06:46;;;;;;;11.50;5.00;;;;;;;41.18;15.24;100823.22;5081174;28;20385;-63
2022/07/24 08:09:12;;;;;;;10.77;5.20;;;;;;;41.17;15.80;100821.66;5048852;28;20389;-62
2022/07/24 08:11:37;;;;;;;7.07;5.20;;;;;;;41.25;15.62;100823.34;5048934;28;20384;-63
2022/07/24 08:14:03;;;;;;;9.77;4.90;;;;;;;41.18;15.75;100824.03;5048514;28;20393;-63
2022/07/24 08:16:28;;;;;;;7.77;5.07;;;;;;;40.93;15.70;100814.53;5048746;28;20380;-63
2022/07/24 08:18:54;;;;;;;6.60;5.25;;;;;;;40.98;16.07;100806.69;5045770;28;20414;-63
2022/07/24 08:21:19;;;;;;;7.50;5.38;;;;;;;41.08;15.55;100805.22;5037922;28;20373;-63
2022/07/24 08:23:46;;;;;;;7.40;5.17;;;;;;;41.00;16.00;100817.44;5047685;28;20965;-63
2022/07/24 08:26:12;;;;;;;9.25;5.30;;;;;;;40.95;15.61;100807.44;5040105;28;20393;-63
2022/07/24 08:28:38;;;;;;;10.95;5.43;;;;;;;40.94;15.66;100813.38;5035440;28;20438;-62
2022/07/24 08:31:04;;;;;;;8.90;4.80;;;;;;;40.86;15.84;100812.47;5032534;28;20493;-63
2022/07/24 08:33:30;;;;;;;8.33;5.27;;;;;;;40.93;16.10;100797.88;5032816;28;20488;-63
2022/07/24 08:35:55;;;;;;;6.57;4.90;;;;;;;40.86;16.33;100809.69;5029295;28;20438;-63
2022/07/24 08:38:21;;;;;;;5.90;5.17;;;;;;;40.87;16.18;100802.94;5021772;28;20417;-63
2022/07/24 08:40:48;;;;;;;7.97;5.00;;;;;;;40.86;16.18;100799.38;5031367;28;20812;-63
2022/07/24 08:43:13;;;;;;;7.35;4.95;;;;;;;40.90;16.00;100796.66;5019817;28;20877;-64
2022/07/24 08:45:41;;;;;;;10.93;4.83;;;;;;;40.94;15.96;100799.47;5032484;28;20390;-64
2022/07/24 08:48:09;;;;;;;8.87;4.80;;;;;;;41.10;15.95;100800.09;5026846;28;20384;-63
2022/07/24 08:50:37;;;;;;;10.48;4.80;;;;;;;41.15;16.04;100796.16;5024296;28;20370;-64
2022/07/24 08:53:04;;;;;;;8.75;4.80;;;;;;;41.10;15.65;100788.97;5027976;28;20388;-63
2022/07/24 08:55:30;;;;;;;7.18;4.60;;;;;;;41.04;16.16;100790.47;5022594;28;20414;-63
2022/07/24 08:57:57;;;;;;;8.68;4.70;;;;;;;41.17;15.89;100780.72;5015809;28;20454;-63
2022/07/24 09:00:28;;;;;;;7.77;4.60;;;;;;;41.29;15.60;100788.03;5019839;28;20386;-62
2022/07/24 09:02:53;;;;;;;6.60;4.85;;;;;;;41.35;15.94;100789.31;5026462;28;20892;-64
2022/07/24 09:05:19;;;;;;;7.93;4.70;;;;;;;41.33;15.63;100791.69;5012010;28;20392;-63
2022/07/24 09:07:45;;;;;;;8.40;4.50;;;;;;;41.34;15.57;100790.47;5012848;28;20418;-64
2022/07/24 09:10:16;;;;;;;9.40;4.77;;;;;;;41.41;16.04;100785.00;5025546;28;20819;-63
2022/07/24 09:12:47;;;;;;;8.48;5.18;;;;;;;41.30;15.98;100781.31;5030771;28;20441;-64
2022/07/24 09:15:23;;;;;;;8.02;4.70;;;;;;;41.37;15.65;100780.59;5017818;28;20472;-63
2022/07/24 09:17:54;;;;;;;7.88;4.90;;;;;;;41.34;15.60;100778.56;5031927;28;20414;-64
2022/07/24 09:20:21;;;;;;;8.07;5.00;;;;;;;41.42;15.64;100780.25;5017301;28;20385;-65
2022/07/24 09:22:49;;;;;;;8.38;5.20;;;;;;;41.54;15.68;100774.41;5024880;28;20384;-64
2022/07/24 09:25:19;;;;;;;9.85;5.78;;;;;;;41.68;15.57;100773.00;5025051;28;20385;-63
2022/07/24 09:27:56;;;;;;;10.63;5.10;;;;;;;41.80;15.38;100773.53;5025692;28;20384;-64
2022/07/24 09:30:24;;;;;;;7.43;5.28;;;;;;;41.93;15.14;100770.47;5011885;28;20487;-64
2022/07/24 09:32:56;;;;;;;8.70;4.80;;;;;;;42.02;15.75;100774.50;5011913;28;20436;-64
2022/07/24 09:35:29;;;;;;;12.33;5.77;;;;;;;42.01;15.57;100772.94;5027661;28;20387;-63
2022/07/24 09:37:56;;;;;;;6.82;4.97;;;;;;;42.06;15.36;100773.75;5030068;28;20465;-64
2022/07/24 09:40:29;;;;;;;7.70;5.07;;;;;;;42.20;15.40;100763.56;5027967;28;20386;-64
2022/07/24 09:43:25;;;;;;;8.93;5.80;;;;;;;42.24;15.33;100760.00;5025782;28;20972;-62
2022/07/24 09:46:00;;;;;;;9.35;5.90;;;;;;;42.26;15.68;100754.84;5025090;28;20404;-63
2022/07/24 09:48:37;;;;;;;9.82;6.25;;;;;;;42.28;15.75;100756.03;5009293;28;20384;-63
2022/07/24 09:51:11;;;;;;;8.02;6.28;;;;;;;42.21;15.38;100756.00;5010772;28;20396;-62
2022/07/24 09:53:37;;;;;;;8.77;6.55;;;;;;;42.10;15.62;100764.25;5023089;28;20389;-63
2022/07/24 09:56:07;;;;;;;7.75;7.15;;;;;;;41.70;15.63;100757.50;4993633;28;20409;-65
2022/07/24 09:58:36;;;;;;;9.57;7.30;;;;;;;41.83;15.74;100753.28;5009117;28;20952;-64
2022/07/24 10:01:04;;;;;;;8.00;6.32;;;;;;;41.95;15.37;100754.16;4997742;28;20407;-65
2022/07/24 10:03:32;;;;;;;7.47;6.65;;;;;;;41.99;15.95;100747.47;5008112;28;20399;-64
2022/07/24 10:06:01;;;;;;;9.02;7.28;;;;;;;41.95;16.04;100754.97;4995674;28;20388;-63
2022/07/24 10:08:28;;;;;;;7.70;6.90;;;;;;;42.07;16.07;100744.75;5005386;28;20412;-64
2022/07/24 10:10:54;;;;;;;7.50;6.82;;;;;;;42.09;15.76;100743.19;5003281;28;20423;-64
2022/07/24 10:13:20;;;;;;;8.20;6.90;;;;;;;41.87;15.88;100756.09;5004229;28;20432;-64
2022/07/24 10:16:03;;;;;;;9.30;6.97;;;;;;;41.90;15.70;100755.31;4996865;28;20391;-65
2022/07/24 10:18:51;;;;;;;7.53;6.40;;;;;;;41.94;15.68;100753.38;5010852;28;20533;-64
2022/07/24 10:21:31;;;;;;;8.20;6.80;;;;;;;41.95;15.92;100752.19;4999690;28;20385;-64
2022/07/24 10:24:15;;;;;;;10.13;6.43;;;;;;;41.99;15.61;100764.16;5010670;28;20416;-65
2022/07/24 10:26:42;;;;;;;7.43;6.70;;;;;;;41.80;15.90;100765.19;5009494;28;20395;-64
2022/07/24 10:29:13;;;;;;;9.70;6.50;;;;;;;41.83;15.64;100756.06;5009260;28;20449;-65
2022/07/24 10:31:44;;;;;;;11.63;6.50;;;;;;;41.93;15.53;100764.91;5000912;28;20397;-64
2022/07/24 10:34:27;;;;;;;7.63;6.38;;;;;;;41.83;15.83;100760.81;5004830;28;20392;-63
2022/07/24 10:37:11;;;;;;;7.03;6.30;;;;;;;41.75;15.74;100762.72;4990979;28;20401;-64
2022/07/24 10:40:04;;;;;;;7.97;7.28;;;;;;;41.60;16.12;100766.53;4996193;28;20468;-64
2022/07/24 10:42:30;;;;;;;9.32;6.82;;;;;;;41.41;15.98;100762.75;5009078;28;20446;-63
2022/07/24 10:45:16;;;;;;;9.57;7.10;;;;;;;41.42;15.94;100764.34;4998057;28;20384;-64
2022/07/24 10:47:42;;;;;;;11.20;6.65;;;;;;;41.41;15.95;100756.38;5007787;28;20898;-64
2022/07/24 10:50:07;;;;;;;11.97;6.60;;;;;;;41.32;16.39;100762.25;4998786;28;20386;-64
2022/07/24 10:52:33;;;;;;;8.43;6.70;;;;;;;41.19;16.28;100756.09;5010391;28;20399;-64
2022/07/24 10:55:22;;;;;;;8.75;6.47;;;;;;;41.08;16.39;100761.53;4996703;28;20557;-64
2022/07/24 10:58:09;;;;;;;8.73;6.93;;;;;;;40.94;16.90;100757.78;5009966;28;20412;-65
2022/07/24 11:00:40;;;;;;;8.82;7.00;;;;;;;40.92;16.96;100752.59;5002498;28;20445;-64
2022/07/24 11:03:26;;;;;;;11.23;7.25;;;;;;;40.68;16.84;100748.28;5006959;28;20460;-64
2022/07/24 11:06:07;;;;;;;10.65;6.75;;;;;;;40.58;16.99;100741.38;4990802;28;20520;-64
2022/07/24 11:08:53;;;;;;;9.27;6.55;;;;;;;40.62;16.95;100750.56;4992128;28;20931;-64
2022/07/24 11:11:20;;;;;;;7.68;6.60;;;;;;;40.54;17.15;100750.84;4982335;28;20404;-64
2022/07/24 11:13:53;;;;;;;8.30;6.72;;;;;;;40.44;17.59;100747.50;5007937;28;20400;-64
2022/07/24 11:16:21;;;;;;;11.70;6.70;;;;;;;40.41;17.54;100750.22;4997787;28;20903;-64
2022/07/24 11:18:47;;;;;;;6.97;5.30;;;;;;;40.13;16.97;100746.59;5008689;28;20909;-62
2022/07/24 11:21:33;;;;;;;9.43;6.70;;;;;;;40.06;17.62;100745.69;5010060;28;20534;-62
2022/07/24 11:24:30;;;;;;;10.65;6.72;;;;;;;40.07;17.55;100744.53;5009565;28;20892;-62
2022/07/24 11:26:56;;;;;;;7.97;6.88;;;;;;;40.14;17.87;100750.19;5008526;28;20408;-62
2022/07/24 11:29:35;;;;;;;8.85;7.05;;;;;;;40.18;18.13;100750.25;5009918;28;20438;-63
2022/07/24 11:32:03;;;;;;;9.40;6.90;;;;;;;40.03;18.20;100746.41;4995843;28;20405;-63
2022/07/24 11:34:29;;;;;;;11.95;6.78;;;;;;;40.04;18.13;100759.16;5009811;28;20384;-62
2022/07/24 11:36:57;;;;;;;8.57;6.80;;;;;;;39.87;18.13;100752.88;5009352;28;20392;-63
2022/07/24 11:39:30;;;;;;;10.03;6.80;;;;;;;39.79;18.27;100748.38;5002403;28;20966;-62
2022/07/24 11:42:00;;;;;;;10.52;6.57;;;;;;;39.86;18.08;100750.47;4990111;28;20401;-61